Time;durP1;ratioP1;P1;durP2;ratioP2;P2;SDS_P1;SDS_P2;PMS_P1;PMS_P2;Temp;Humidity;BMP_temperature;BMP_pressure;BME280_temperature;BME280_humidity;BME280_pressure;Samples;Min_cycle;Max_cycle;Signal;HPM_P1;HPM_P2
2022/06/17 00:01:01;;;;;;;4.20;3.00;;;20.80;51.70;;;;;;5018697;28;20844;-72
2022/06/17 00:03:29;;;;;;;7.43;3.40;;;20.80;51.80;;;;;;5012739;28;20436;-72
2022/06/17 00:05:57;;;;;;;4.70;3.13;;;20.70;52.20;;;;;;5018937;28;20930;-73
2022/06/17 00:08:27;;;;;;;4.20;3.43;;;20.60;52.50;;;;;;5008170;28;20554;-72
2022/06/17 00:10:53;;;;;;;4.97;3.30;;;20.60;52.80;;;;;;5017519;28;20414;-72
2022/06/17 00:13:20;;;;;;;4.20;3.13;;;20.60;52.60;;;;;;5011880;28;20838;-73
2022/06/17 00:15:47;;;;;;;4.53;3.30;;;20.60;52.60;;;;;;5014541;28;20900;-74
2022/06/17 00:18:13;;;;;;;3.80;3.03;;;20.60;52.90;;;;;;5009419;28;20786;-72
2022/06/17 00:20:40;;;;;;;4.57;3.10;;;20.50;52.80;;;;;;5010563;28;20425;-73
2022/06/17 00:23:12;;;;;;;5.00;3.27;;;20.50;52.80;;;;;;5015121;28;20476;-72
2022/06/17 00:25:40;;;;;;;7.37;4.27;;;20.40;53.30;;;;;;5011157;28;20920;-73
2022/06/17 00:28:11;;;;;;;5.10;3.27;;;20.30;53.60;;;;;;5010792;28;20422;-73
2022/06/17 00:30:36;;;;;;;3.57;3.27;;;20.30;53.70;;;;;;5018286;28;20456;-71
2022/06/17 00:33:03;;;;;;;3.97;3.10;;;20.30;54.00;;;;;;5015245;28;20467;-71
2022/06/17 00:35:33;;;;;;;3.90;3.27;;;20.20;53.80;;;;;;5022201;28;20687;-72
2022/06/17 00:38:00;;;;;;;4.47;3.40;;;20.20;54.00;;;;;;5012100;28;20513;-72
2022/06/17 00:40:29;;;;;;;4.77;2.70;;;20.10;54.40;;;;;;5010619;28;20912;-73
2022/06/17 00:42:56;;;;;;;5.03;3.33;;;19.90;55.00;;;;;;5014867;28;20425;-72
2022/06/17 00:45:44;;;;;;;4.23;2.80;;;19.90;55.00;;;;;;5012527;28;20497;-72
2022/06/17 00:48:15;;;;;;;6.87;3.77;;;19.80;55.60;;;;;;5013842;28;20557;-73
2022/06/17 00:51:07;;;;;;;6.83;3.27;;;19.80;55.70;;;;;;5006789;28;20421;-72
2022/06/17 00:53:42;;;;;;;4.17;3.40;;;19.70;56.10;;;;;;5005899;28;20479;-72
2022/06/17 00:56:28;;;;;;;6.83;3.63;;;19.60;56.40;;;;;;5011015;28;20452;-73
2022/06/17 00:59:06;;;;;;;4.30;3.50;;;19.60;56.60;;;;;;5011107;28;20685;-73
2022/06/17 01:01:46;;;;;;;6.07;2.90;;;19.40;57.00;;;;;;5014030;28;21090;-71
2022/06/17 01:04:17;;;;;;;5.57;3.50;;;19.40;57.30;;;;;;5016899;28;20468;-72
2022/06/17 01:06:49;;;;;;;4.37;3.50;;;19.40;57.20;;;;;;5018138;28;20844;-72
2022/06/17 01:12:09;;;;;;;4.53;3.50;;;19.40;57.60;;;;;;5016833;28;20805;-73
2022/06/17 01:14:36;;;;;;;3.53;3.30;;;19.30;57.70;;;;;;5012762;28;20417;-71
2022/06/17 01:17:03;;;;;;;5.57;3.57;;;19.20;58.10;;;;;;5012750;28;20837;-71
2022/06/17 01:19:56;;;;;;;7.63;3.80;;;19.20;58.40;;;;;;5016022;28;20464;-71
2022/06/17 01:22:34;;;;;;;6.70;3.60;;;19.10;58.70;;;;;;5004798;28;20433;-71
2022/06/17 01:25:01;;;;;;;6.20;3.40;;;19.00;59.10;;;;;;5013247;28;20413;-72
2022/06/17 01:27:32;;;;;;;6.57;4.20;;;19.00;59.20;;;;;;5011433;28;20421;-71
2022/06/17 01:29:58;;;;;;;6.10;3.57;;;18.90;59.30;;;;;;5010775;28;20464;-73
2022/06/17 01:32:31;;;;;;;3.87;3.17;;;18.90;59.50;;;;;;5017860;28;20579;-72
2022/06/17 01:34:57;;;;;;;5.57;3.73;;;18.90;59.70;;;;;;5014459;28;20170;-72
2022/06/17 01:37:23;;;;;;;7.40;3.17;;;18.80;59.90;;;;;;5018557;28;20489;-72
2022/06/17 01:39:49;;;;;;;6.17;4.00;;;18.80;60.10;;;;;;5014848;28;20237;-73
2022/06/17 01:42:15;;;;;;;4.93;3.80;;;18.80;60.10;;;;;;5021675;28;20922;-72
2022/06/17 01:44:42;;;;;;;7.03;3.67;;;18.80;60.30;;;;;;5014131;28;20241;-73
2022/06/17 01:47:15;;;;;;;4.40;2.97;;;18.70;60.40;;;;;;5014458;28;20186;-73
2022/06/17 01:49:48;;;;;;;4.70;3.90;;;18.70;60.70;;;;;;5016962;28;20477;-73
2022/06/17 01:52:20;;;;;;;5.23;3.47;;;18.60;60.70;;;;;;5012664;28;20836;-72
2022/06/17 01:54:58;;;;;;;4.27;3.30;;;18.60;61.30;;;;;;5006957;28;20485;-73
2022/06/17 01:57:28;;;;;;;6.40;3.70;;;18.50;61.50;;;;;;5007867;28;20406;-72
2022/06/17 02:00:00;;;;;;;7.43;3.53;;;18.50;61.60;;;;;;5016333;28;20479;-72
2022/06/17 02:02:27;;;;;;;5.47;3.57;;;18.30;61.90;;;;;;5013866;28;20457;-73
2022/06/17 02:04:58;;;;;;;5.63;3.33;;;18.30;62.20;;;;;;5017558;28;20429;-71
2022/06/17 02:07:47;;;;;;;5.07;3.20;;;18.40;62.30;;;;;;5015638;28;20464;-71
2022/06/17 02:10:13;;;;;;;4.00;3.33;;;18.40;62.20;;;;;;5007488;28;20495;-72
2022/06/17 02:12:40;;;;;;;4.60;3.23;;;18.30;62.50;;;;;;5020436;28;20483;-72
2022/06/17 02:15:08;;;;;;;5.07;3.57;;;18.30;62.80;;;;;;5013515;28;20427;-72
2022/06/17 02:17:39;;;;;;;7.30;4.33;;;18.20;62.60;;;;;;5015235;28;20431;-72
2022/06/17 02:20:07;;;;;;;5.00;3.43;;;18.30;62.80;;;;;;5012783;28;21004;-72
2022/06/17 02:22:35;;;;;;;5.60;3.47;;;18.20;62.80;;;;;;5010266;28;20442;-72
2022/06/17 02:25:05;;;;;;;3.90;3.40;;;18.10;63.10;;;;;;5021015;28;20414;-73
2022/06/17 02:27:33;;;;;;;5.73;3.30;;;18.10;63.40;;;;;;5013968;28;20880;-72
2022/06/17 02:30:00;;;;;;;3.87;3.27;;;18.00;63.80;;;;;;5014513;28;20562;-72
2022/06/17 02:32:29;;;;;;;5.93;3.70;;;18.00;63.80;;;;;;5023704;28;20474;-72
2022/06/17 02:35:00;;;;;;;4.40;3.03;;;17.90;64.10;;;;;;5013049;28;20430;-71
2022/06/17 02:37:28;;;;;;;5.10;3.70;;;18.00;64.70;;;;;;5027697;28;20498;-71
2022/06/17 02:39:57;;;;;;;9.10;3.90;;;17.90;64.40;;;;;;5019698;28;20468;-71
2022/06/17 02:42:35;;;;;;;6.87;4.30;;;17.90;65.10;;;;;;5017419;28;20416;-72
2022/06/17 02:45:11;;;;;;;5.43;4.20;;;17.70;65.40;;;;;;5021772;28;20429;-74
2022/06/17 02:47:38;;;;;;;4.80;3.20;;;17.70;66.00;;;;;;5014333;28;20481;-72
2022/06/17 02:50:04;;;;;;;7.50;4.17;;;17.80;65.80;;;;;;5017543;28;20457;-73
2022/06/17 02:52:36;;;;;;;4.97;3.93;;;17.80;65.30;;;;;;5024448;28;20417;-72
2022/06/17 02:55:08;;;;;;;5.67;4.23;;;17.80;65.10;;;;;;5015718;28;20428;-72
2022/06/17 02:57:34;;;;;;;5.67;3.70;;;17.60;65.30;;;;;;5015565;28;21174;-71
2022/06/17 03:00:21;;;;;;;3.83;3.50;;;17.50;65.80;;;;;;5013675;28;20483;-72
2022/06/17 03:02:54;;;;;;;6.10;4.10;;;17.40;67.20;;;;;;5013519;28;20451;-71
2022/06/17 03:05:28;;;;;;;5.80;3.40;;;17.30;67.30;;;;;;5025733;28;20470;-71
2022/06/17 03:07:56;;;;;;;8.90;3.90;;;17.40;67.30;;;;;;5025571;28;20490;-71
2022/06/17 03:10:43;;;;;;;4.90;3.63;;;17.50;66.90;;;;;;5011820;28;20507;-72
2022/06/17 03:13:34;;;;;;;9.77;4.20;;;17.50;66.60;;;;;;5018081;28;20411;-72
2022/06/17 03:16:02;;;;;;;10.47;4.27;;;17.50;66.10;;;;;;5021912;28;20462;-72
2022/06/17 03:18:29;;;;;;;4.90;3.73;;;17.50;66.30;;;;;;5024899;28;20961;-72
2022/06/17 03:20:55;;;;;;;5.03;3.40;;;17.50;66.40;;;;;;5031484;28;20437;-71
2022/06/17 03:23:30;;;;;;;7.37;3.60;;;17.40;66.60;;;;;;5024327;28;20511;-71
2022/06/17 03:26:05;;;;;;;3.90;3.07;;;17.50;66.60;;;;;;5027904;28;20526;-70
2022/06/17 03:28:39;;;;;;;4.03;3.40;;;17.30;67.50;;;;;;5005994;28;20464;-72
2022/06/17 03:31:24;;;;;;;5.77;3.77;;;17.40;67.50;;;;;;5028378;28;20432;-71
2022/06/17 03:33:53;;;;;;;5.80;3.60;;;17.40;66.90;;;;;;5025914;28;20813;-71
2022/06/17 03:36:30;;;;;;;5.00;4.00;;;17.40;67.00;;;;;;5027824;28;20785;-72
2022/06/17 03:38:58;;;;;;;5.40;3.90;;;17.40;67.20;;;;;;5044399;28;21072;-72
2022/06/17 03:41:30;;;;;;;4.87;3.53;;;17.30;67.20;;;;;;5028560;28;20526;-71
2022/06/17 03:44:04;;;;;;;5.50;3.80;;;17.20;67.50;;;;;;5030438;28;20423;-72
2022/06/17 03:46:36;;;;;;;6.40;3.87;;;17.10;68.00;;;;;;5026361;28;20439;-71
2022/06/17 03:49:15;;;;;;;6.50;3.93;;;17.20;68.20;;;;;;5031771;28;20558;-73
2022/06/17 03:51:42;;;;;;;5.50;3.83;;;17.30;67.70;;;;;;5041945;28;20502;-72
2022/06/17 03:54:15;;;;;;;6.67;3.40;;;17.30;67.70;;;;;;5034792;28;20417;-71
2022/06/17 03:56:45;;;;;;;5.73;3.70;;;17.20;68.20;;;;;;5029766;28;20416;-72
2022/06/17 03:59:18;;;;;;;6.67;3.80;;;17.30;68.30;;;;;;5029348;28;20480;-72
2022/06/17 04:01:52;;;;;;;6.03;3.17;;;17.40;68.20;;;;;;5035708;28;20421;-71
2022/06/17 04:04:28;;;;;;;6.80;3.80;;;17.40;68.00;;;;;;5017851;28;20406;-72
2022/06/17 04:06:56;;;;;;;6.97;3.30;;;17.40;68.00;;;;;;5040811;28;20481;-73
2022/06/17 04:09:28;;;;;;;4.73;3.40;;;17.40;68.00;;;;;;5024738;28;20493;-71
2022/06/17 04:11:59;;;;;;;3.93;3.30;;;17.50;67.70;;;;;;5012824;28;20426;-72
2022/06/17 04:14:44;;;;;;;4.43;3.50;;;17.50;67.70;;;;;;5017745;28;20417;-74
2022/06/17 04:17:25;;;;;;;4.83;3.30;;;17.50;67.90;;;;;;5015571;28;20511;-72
2022/06/17 04:20:04;;;;;;;5.40;3.40;;;17.50;68.00;;;;;;5014246;28;20514;-72
2022/06/17 04:22:35;;;;;;;4.40;3.57;;;17.50;68.30;;;;;;5009003;28;20417;-72
2022/06/17 04:25:06;;;;;;;5.73;3.90;;;17.50;68.50;;;;;;5023298;28;20865;-71
2022/06/17 04:30:22;;;;;;;5.40;3.50;;;17.50;68.90;;;;;;5010261;28;20824;-72
2022/06/17 04:32:52;;;;;;;5.33;3.70;;;17.50;69.10;;;;;;5015015;28;20444;-71
2022/06/17 04:35:18;;;;;;;3.90;3.27;;;17.50;69.10;;;;;;5015871;28;20418;-70
2022/06/17 04:37:46;;;;;;;4.43;3.40;;;17.60;69.50;;;;;;5014337;28;20447;-71
2022/06/17 04:40:35;;;;;;;5.70;4.10;;;17.70;69.20;;;;;;5014633;28;20469;-71
2022/06/17 04:43:24;;;;;;;5.63;4.03;;;17.70;69.20;;;;;;5020507;28;20527;-72
2022/06/17 04:46:26;;;;;;;6.23;3.50;;;17.80;69.40;;;;;;5012073;28;20456;-74
2022/06/17 04:48:57;;;;;;;6.10;3.40;;;17.80;69.70;;;;;;5040740;28;20850;-73
2022/06/17 04:51:25;;;;;;;3.77;3.60;;;17.80;69.50;;;;;;5009176;28;20422;-74
2022/06/17 04:53:52;;;;;;;4.87;4.10;;;17.90;69.50;;;;;;5019196;28;20580;-73
2022/06/17 04:56:38;;;;;;;6.40;4.00;;;17.90;69.40;;;;;;5013734;28;20425;-74
2022/06/17 04:59:41;;;;;;;9.00;3.93;;;17.90;69.50;;;;;;5016576;28;20814;-74
2022/06/17 05:16:46;;;;;;;6.73;3.80;;;17.60;68.20;;;;;;5108024;27;20602;-74
2022/06/17 05:19:12;;;;;;;4.37;3.63;;;17.60;69.20;;;;;;5091692;28;20457;-74
2022/06/17 05:21:38;;;;;;;4.87;3.90;;;17.70;69.40;;;;;;5100532;28;20184;-74
2022/06/17 05:24:04;;;;;;;6.33;4.20;;;17.80;69.40;;;;;;5106435;28;20232;-74
2022/06/17 05:26:30;;;;;;;5.17;4.23;;;17.90;69.20;;;;;;5103633;28;20250;-73
2022/06/17 05:28:56;;;;;;;7.83;4.27;;;18.00;68.90;;;;;;5103334;28;20980;-74
2022/06/17 05:31:24;;;;;;;6.30;4.63;;;18.10;67.60;;;;;;5109836;28;20279;-73
2022/06/17 05:33:50;;;;;;;8.30;4.30;;;18.30;66.90;;;;;;5105812;28;20180;-74
2022/06/17 05:36:16;;;;;;;4.63;4.07;;;18.40;66.30;;;;;;5106484;28;20520;-74
2022/06/17 05:38:43;;;;;;;5.80;3.80;;;18.60;64.80;;;;;;5106162;28;20469;-74
2022/06/17 05:41:17;;;;;;;6.13;4.57;;;18.60;63.50;;;;;;5100541;28;20572;-73
2022/06/17 05:43:43;;;;;;;5.23;3.63;;;18.70;63.70;;;;;;5106634;28;20440;-73
2022/06/17 05:46:08;;;;;;;6.13;4.23;;;18.80;64.10;;;;;;5104560;28;20418;-74
2022/06/17 05:48:34;;;;;;;5.23;4.00;;;18.90;63.40;;;;;;5109303;27;20576;-73
2022/06/17 05:51:01;;;;;;;7.57;4.67;;;18.90;62.20;;;;;;5097405;28;20190;-73
2022/06/17 05:53:27;;;;;;;8.20;4.07;;;18.90;62.20;;;;;;5105837;28;20190;-74
2022/06/17 05:55:54;;;;;;;7.97;4.50;;;18.90;62.00;;;;;;5107590;28;20472;-72
2022/06/17 05:58:20;;;;;;;4.80;3.73;;;19.00;61.90;;;;;;5102891;28;20284;-74
2022/06/17 06:00:46;;;;;;;5.80;4.10;;;19.00;61.70;;;;;;5107797;28;20525;-73
2022/06/17 06:03:18;;;;;;;8.10;4.50;;;19.10;61.50;;;;;;5105732;28;20412;-74
2022/06/17 06:05:44;;;;;;;7.47;4.60;;;19.10;61.60;;;;;;5108779;28;20488;-74
2022/06/17 06:08:10;;;;;;;5.87;4.37;;;19.20;61.30;;;;;;5094924;28;20434;-73
2022/06/17 06:10:36;;;;;;;10.73;4.03;;;19.30;60.60;;;;;;5106966;28;20277;-74
2022/06/17 06:13:05;;;;;;;7.30;3.93;;;19.30;60.70;;;;;;5109412;28;20527;-73
2022/06/17 06:15:40;;;;;;;6.50;4.00;;;19.30;61.00;;;;;;5107769;28;20472;-74
2022/06/17 06:18:11;;;;;;;6.80;4.17;;;19.40;60.90;;;;;;5107028;28;20420;-75
2022/06/17 06:20:37;;;;;;;5.63;4.40;;;19.50;60.70;;;;;;5103529;28;20420;-75
2022/06/17 06:23:03;;;;;;;5.40;3.87;;;19.60;60.10;;;;;;5102149;28;20440;-73
2022/06/17 06:25:30;;;;;;;5.70;3.63;;;19.70;60.30;;;;;;5108795;28;20416;-73
2022/06/17 06:27:55;;;;;;;11.83;4.67;;;19.80;59.60;;;;;;5095301;28;20432;-74
2022/06/17 06:30:27;;;;;;;7.03;4.43;;;19.80;59.70;;;;;;5087703;28;20465;-73
2022/06/17 06:33:01;;;;;;;8.00;4.07;;;19.80;59.10;;;;;;5094124;28;20195;-74
2022/06/17 06:35:32;;;;;;;6.23;4.60;;;19.80;59.50;;;;;;5088349;28;20491;-73
2022/06/17 06:37:59;;;;;;;7.00;4.40;;;19.80;59.10;;;;;;5090295;28;20518;-73
2022/06/17 06:40:25;;;;;;;6.40;3.90;;;19.80;59.30;;;;;;5092168;28;20450;-75
2022/06/17 06:42:52;;;;;;;7.27;4.20;;;19.80;58.80;;;;;;5093811;28;20421;-73
2022/06/17 06:45:22;;;;;;;5.60;4.37;;;19.80;58.50;;;;;;5093243;28;20482;-73
2022/06/17 06:47:49;;;;;;;6.70;4.40;;;19.70;58.80;;;;;;5090527;28;20421;-73
2022/06/17 06:50:18;;;;;;;8.13;4.50;;;19.70;59.10;;;;;;5076787;28;20904;-74
2022/06/17 06:52:45;;;;;;;6.00;4.13;;;19.80;58.80;;;;;;5091865;28;20429;-74
2022/06/17 06:55:12;;;;;;;10.03;4.53;;;19.80;58.80;;;;;;5089300;28;20461;-74
2022/06/17 06:57:56;;;;;;;9.80;4.37;;;19.90;58.80;;;;;;5092538;28;20420;-73
2022/06/17 07:00:26;;;;;;;7.07;4.07;;;19.90;58.90;;;;;;5081180;28;20547;-73
2022/06/17 07:02:52;;;;;;;5.63;4.80;;;20.00;58.80;;;;;;5092232;28;21387;-73
2022/06/17 07:05:18;;;;;;;6.73;4.23;;;20.10;58.80;;;;;;5093967;28;20529;-74
2022/06/17 07:07:44;;;;;;;9.50;5.13;;;20.20;58.20;;;;;;5093013;28;20432;-74
2022/06/17 07:10:16;;;;;;;6.10;4.23;;;20.40;58.00;;;;;;5083967;28;20458;-74
2022/06/17 07:12:42;;;;;;;8.87;4.50;;;20.60;57.70;;;;;;5090302;28;20432;-73
2022/06/17 07:15:09;;;;;;;6.70;4.10;;;20.70;57.60;;;;;;5091808;28;21019;-73
2022/06/17 07:17:35;;;;;;;5.27;4.07;;;20.70;58.00;;;;;;5091946;28;20663;-74
2022/06/17 07:20:01;;;;;;;7.37;4.37;;;20.70;57.70;;;;;;5084678;28;20459;-74
2022/06/17 07:22:26;;;;;;;5.07;4.23;;;20.90;57.00;;;;;;5093439;28;20180;-74
2022/06/17 07:24:52;;;;;;;7.47;4.43;;;20.70;57.20;;;;;;5088910;28;20184;-79
2022/06/17 07:27:18;;;;;;;8.90;4.50;;;20.60;57.70;;;;;;5098211;28;20185;-74
2022/06/17 07:29:44;;;;;;;9.40;5.00;;;20.60;57.60;;;;;;5090358;28;20225;-73
2022/06/17 07:32:10;;;;;;;8.20;4.87;;;20.70;57.70;;;;;;5102784;28;20431;-73
2022/06/17 07:34:35;;;;;;;6.97;4.30;;;20.90;57.40;;;;;;5096236;28;20199;-74
2022/06/17 07:39:54;;;;;;;8.73;4.67;;;21.00;57.00;;;;;;5077726;28;20225;-73
2022/06/17 07:42:25;;;;;;;10.00;4.80;;;21.00;57.20;;;;;;5090981;28;20426;-74
2022/06/17 07:44:52;;;;;;;9.10;4.70;;;21.10;57.60;;;;;;5092928;28;20423;-74
2022/06/17 07:47:20;;;;;;;8.00;4.60;;;21.20;57.70;;;;;;5090176;28;20432;-74
2022/06/17 07:49:46;;;;;;;8.03;4.57;;;21.30;57.40;;;;;;5084262;28;20460;-74
2022/06/17 07:52:12;;;;;;;8.57;5.23;;;21.50;57.00;;;;;;5088485;28;20479;-74
2022/06/17 07:54:38;;;;;;;7.70;5.67;;;21.60;57.30;;;;;;5086259;28;20186;-74
2022/06/17 07:57:04;;;;;;;10.67;5.07;;;21.70;57.00;;;;;;5086060;28;20456;-75
2022/06/17 07:59:30;;;;;;;9.67;5.20;;;21.70;56.90;;;;;;5084584;28;20231;-75
2022/06/17 08:01:56;;;;;;;8.93;5.30;;;21.70;56.80;;;;;;5084361;28;20871;-73
2022/06/17 08:04:22;;;;;;;8.90;5.00;;;21.80;56.80;;;;;;5084651;28;20186;-76
2022/06/17 08:06:50;;;;;;;8.20;5.60;;;22.00;56.50;;;;;;5083771;28;20235;-76
2022/06/17 08:09:20;;;;;;;9.70;5.13;;;22.00;56.60;;;;;;5078305;28;20460;-75
2022/06/17 08:11:48;;;;;;;9.73;5.67;;;22.10;56.50;;;;;;5084534;28;20911;-75
2022/06/17 08:14:14;;;;;;;8.80;5.40;;;22.20;55.80;;;;;;5089871;28;21318;-74
2022/06/17 08:16:40;;;;;;;10.23;6.27;;;22.20;55.70;;;;;;5078831;28;21123;-75
2022/06/17 08:19:07;;;;;;;8.17;5.50;;;22.30;55.40;;;;;;5076580;28;20471;-75
2022/06/17 08:21:34;;;;;;;8.47;5.50;;;22.30;55.00;;;;;;5083115;28;20442;-75
2022/06/17 08:24:00;;;;;;;11.97;5.83;;;22.30;55.00;;;;;;5075980;28;20431;-76
2022/06/17 08:26:26;;;;;;;6.17;4.70;;;22.20;54.80;;;;;;5081301;28;20430;-75
2022/06/17 08:28:51;;;;;;;5.83;4.63;;;22.30;54.50;;;;;;5075141;28;20474;-74
2022/06/17 08:31:17;;;;;;;10.77;5.87;;;22.50;54.00;;;;;;5088288;28;20516;-75
2022/06/17 08:33:43;;;;;;;9.20;5.37;;;22.40;54.60;;;;;;5081959;28;20196;-75
2022/06/17 08:36:12;;;;;;;10.10;5.37;;;22.40;54.50;;;;;;5085598;28;20218;-75
2022/06/17 08:38:42;;;;;;;6.20;4.40;;;22.60;54.20;;;;;;5080578;28;20205;-75
2022/06/17 08:41:23;;;;;;;9.93;4.73;;;22.70;53.00;;;;;;5089795;28;20788;-75
2022/06/17 08:44:13;;;;;;;8.47;4.43;;;22.80;50.50;;;;;;5082650;28;20576;-75
2022/06/17 08:46:48;;;;;;;6.40;4.20;;;22.90;49.80;;;;;;5086447;28;20443;-74
2022/06/17 08:49:33;;;;;;;5.73;4.00;;;23.10;48.90;;;;;;5083629;28;20591;-75
2022/06/17 08:52:24;;;;;;;11.53;4.10;;;23.20;48.60;;;;;;5086696;28;20439;-74
2022/06/17 08:55:15;;;;;;;7.40;4.60;;;23.20;47.30;;;;;;5058536;28;20891;-74
2022/06/17 08:57:58;;;;;;;5.17;4.30;;;23.20;47.80;;;;;;5081970;28;20917;-75
2022/06/17 09:00:49;;;;;;;13.73;5.00;;;23.30;48.10;;;;;;5082556;28;20544;-77
2022/06/17 09:03:26;;;;;;;7.03;4.47;;;23.40;48.20;;;;;;5088119;28;20423;-75
2022/06/17 09:06:15;;;;;;;9.87;4.30;;;23.30;47.90;;;;;;5085770;28;20427;-75
2022/06/17 09:08:50;;;;;;;5.83;4.20;;;23.30;48.30;;;;;;5079329;28;20464;-76
2022/06/17 09:11:20;;;;;;;6.00;4.90;;;23.40;48.30;;;;;;5080490;28;20473;-74
2022/06/17 09:13:54;;;;;;;5.63;4.10;;;23.50;47.70;;;;;;5084007;28;20929;-77
2022/06/17 09:16:37;;;;;;;6.27;4.70;;;23.50;47.40;;;;;;5079908;28;20961;-74
2022/06/17 09:19:03;;;;;;;6.60;4.43;;;23.60;47.30;;;;;;5080666;28;20547;-75
2022/06/17 09:21:31;;;;;;;6.73;3.97;;;23.50;47.00;;;;;;5078715;28;20422;-73
2022/06/17 09:24:05;;;;;;;6.27;4.57;;;23.60;46.60;;;;;;5079267;28;20455;-74
2022/06/17 09:26:48;;;;;;;6.40;4.43;;;23.70;45.80;;;;;;5082074;28;20455;-75
2022/06/17 09:29:31;;;;;;;5.30;4.90;;;23.70;45.90;;;;;;5077803;28;20473;-74
2022/06/17 09:32:20;;;;;;;11.23;4.33;;;23.70;45.80;;;;;;5082728;28;20439;-75
2022/06/17 09:35:29;;;;;;;5.33;4.07;;;23.90;45.40;;;;;;5078643;28;20433;-75
2022/06/17 09:38:05;;;;;;;6.73;4.93;;;24.00;45.40;;;;;;5072776;28;20420;-73
2022/06/17 09:40:38;;;;;;;7.13;4.20;;;23.90;45.10;;;;;;5081624;28;20445;-75
2022/06/17 09:43:26;;;;;;;6.43;4.57;;;24.00;45.00;;;;;;5084482;28;20980;-75
2022/06/17 09:46:13;;;;;;;8.40;4.13;;;24.10;44.30;;;;;;5085069;28;20858;-73
2022/06/17 09:49:24;;;;;;;6.40;4.00;;;23.90;45.10;;;;;;5079933;28;20878;-75
2022/06/17 09:52:03;;;;;;;7.90;4.23;;;24.10;44.70;;;;;;5078221;28;20465;-74
2022/06/17 09:54:55;;;;;;;5.83;4.07;;;24.00;44.50;;;;;;5078719;28;20502;-75
2022/06/17 09:57:29;;;;;;;9.70;4.37;;;24.00;44.50;;;;;;5074572;28;20441;-74
2022/06/17 10:00:06;;;;;;;4.97;3.70;;;24.10;43.80;;;;;;5082715;28;20495;-74
2022/06/17 10:02:40;;;;;;;7.10;3.87;;;24.10;43.50;;;;;;5079468;28;20432;-75
2022/06/17 10:05:16;;;;;;;4.70;4.30;;;24.10;43.70;;;;;;5091776;28;20503;-73
2022/06/17 10:07:57;;;;;;;6.67;4.30;;;24.20;43.20;;;;;;5084274;28;20441;-76
2022/06/17 10:10:50;;;;;;;7.03;4.03;;;24.30;42.80;;;;;;5094791;28;20947;-75
2022/06/17 10:13:33;;;;;;;6.00;4.10;;;24.40;42.80;;;;;;5097352;28;20505;-74
2022/06/17 10:19:35;;;;;;;6.20;3.87;;;24.60;42.20;;;;;;5035375;28;20471;-74
2022/06/17 10:22:10;;;;;;;4.20;3.90;;;24.90;41.20;;;;;;5035769;28;20429;-74
2022/06/17 10:25:12;;;;;;;6.87;3.97;;;25.30;39.40;;;;;;5037253;28;20489;-74
2022/06/17 10:28:04;;;;;;;5.10;3.50;;;25.70;38.60;;;;;;5016937;28;20428;-76
2022/06/17 10:30:54;;;;;;;5.13;3.30;;;25.40;37.50;;;;;;5027323;28;20451;-75
2022/06/17 10:33:21;;;;;;;5.57;3.20;;;25.60;38.00;;;;;;5023284;28;20459;-75
2022/06/17 10:35:47;;;;;;;5.80;4.00;;;26.00;38.30;;;;;;5021317;28;20977;-74
2022/06/17 10:38:29;;;;;;;7.43;3.80;;;25.90;38.40;;;;;;5030520;28;20459;-74
2022/06/17 10:40:55;;;;;;;6.00;3.70;;;26.30;38.20;;;;;;5029458;28;20433;-75
2022/06/17 10:43:27;;;;;;;4.40;3.67;;;26.80;37.20;;;;;;5029478;28;20477;-75
2022/06/17 10:45:53;;;;;;;6.57;4.30;;;26.90;37.40;;;;;;5029205;28;20253;-74
2022/06/17 10:48:50;;;;;;;8.03;4.63;;;27.10;36.30;;;;;;5009707;28;20446;-74
2022/06/17 10:51:17;;;;;;;5.93;4.23;;;26.60;38.20;;;;;;5070842;28;20965;-75
2022/06/17 10:53:57;;;;;;;7.93;4.43;;;26.30;38.80;;;;;;5080350;28;20428;-75
2022/06/17 10:56:54;;;;;;;8.27;3.90;;;26.40;39.10;;;;;;5084490;28;20472;-75
2022/06/17 10:59:42;;;;;;;6.87;4.20;;;27.00;37.60;;;;;;5081930;28;20457;-74
2022/06/17 11:02:20;;;;;;;4.70;4.10;;;27.30;36.70;;;;;;5091360;28;20503;-74
2022/06/17 11:04:50;;;;;;;4.60;3.63;;;27.00;36.80;;;;;;5085159;28;20417;-73
2022/06/17 11:07:19;;;;;;;4.83;3.80;;;27.30;35.90;;;;;;5085022;28;20408;-75
2022/06/17 11:10:00;;;;;;;5.53;3.80;;;27.40;36.00;;;;;;5079749;28;20498;-75
2022/06/17 11:12:38;;;;;;;4.30;3.63;;;27.90;35.30;;;;;;5085223;28;20421;-75
2022/06/17 11:15:19;;;;;;;4.23;3.50;;;28.30;33.90;;;;;;5089254;28;21022;-76
2022/06/17 11:17:48;;;;;;;6.53;4.00;;;28.00;34.00;;;;;;5090761;28;20479;-75
2022/06/17 11:20:37;;;;;;;6.23;3.90;;;28.00;34.80;;;;;;5084272;28;20448;-75
2022/06/17 11:23:25;;;;;;;3.63;3.00;;;27.90;34.40;;;;;;5082139;28;20410;-75
2022/06/17 11:26:15;;;;;;;8.20;4.20;;;27.90;34.10;;;;;;5083710;28;20414;-75
2022/06/17 11:28:48;;;;;;;4.00;3.87;;;28.10;33.70;;;;;;5078386;28;20640;-74
2022/06/17 11:31:38;;;;;;;5.57;3.27;;;27.60;33.60;;;;;;5083733;28;20429;-73
2022/06/17 11:34:24;;;;;;;13.53;3.87;;;27.20;33.90;;;;;;5091652;28;20501;-76
2022/06/17 11:37:10;;;;;;;6.60;2.93;;;27.20;33.90;;;;;;5080819;28;20461;-76
2022/06/17 11:39:37;;;;;;;4.10;3.10;;;27.20;33.50;;;;;;5082361;28;20561;-74
2022/06/17 11:42:24;;;;;;;5.70;3.33;;;27.40;32.90;;;;;;5080741;28;20497;-74
2022/06/17 11:44:55;;;;;;;5.33;3.47;;;27.60;31.90;;;;;;5080070;28;20418;-74
2022/06/17 11:47:24;;;;;;;5.50;3.20;;;27.90;30.90;;;;;;5087508;28;20478;-75
2022/06/17 11:49:52;;;;;;;7.90;3.60;;;27.80;31.60;;;;;;5083860;28;20461;-75
2022/06/17 11:52:35;;;;;;;4.37;3.30;;;27.90;32.30;;;;;;5083579;28;20779;-73
2022/06/17 11:55:02;;;;;;;3.07;2.87;;;28.20;30.40;;;;;;5086392;28;20457;-74
2022/06/17 11:57:32;;;;;;;3.17;2.53;;;28.80;28.60;;;;;;5084383;28;20425;-75
2022/06/17 12:00:00;;;;;;;2.83;2.63;;;28.90;28.30;;;;;;5083529;28;20551;-75
2022/06/17 12:02:27;;;;;;;3.80;3.20;;;28.80;28.60;;;;;;5087544;28;20420;-75
2022/06/17 12:05:09;;;;;;;11.73;3.10;;;28.80;28.80;;;;;;5077437;28;20462;-74
2022/06/17 12:08:12;;;;;;;5.73;4.17;;;28.40;28.70;;;;;;5081193;28;20417;-76
2022/06/17 12:10:50;;;;;;;4.63;3.53;;;27.90;29.90;;;;;;5084692;28;20425;-74
2022/06/17 12:13:30;;;;;;;2.93;2.77;;;27.80;29.60;;;;;;5089531;28;20409;-75
2022/06/17 12:16:11;;;;;;;3.40;2.93;;;27.30;29.70;;;;;;5087288;28;20472;-74
2022/06/17 12:18:41;;;;;;;4.07;2.70;;;27.40;30.10;;;;;;5080898;28;20836;-75
2022/06/17 12:21:19;;;;;;;4.10;2.70;;;27.80;29.00;;;;;;5086690;28;20418;-77
2022/06/17 12:23:52;;;;;;;3.80;2.63;;;27.50;29.10;;;;;;5074713;28;21061;-76
2022/06/17 12:26:24;;;;;;;4.30;2.50;;;27.50;28.60;;;;;;5083358;28;21164;-74
2022/06/17 12:28:49;;;;;;;2.67;2.50;;;27.90;28.00;;;;;;5074974;28;20563;-75
2022/06/17 12:31:27;;;;;;;2.77;2.00;;;28.50;27.60;;;;;;5083648;28;20467;-75
2022/06/17 12:34:24;;;;;;;2.93;2.53;;;29.50;27.10;;;;;;5087233;28;20674;-75
2022/06/17 12:36:55;;;;;;;2.50;2.40;;;29.40;27.60;;;;;;5081132;28;20549;-75
2022/06/17 12:39:35;;;;;;;4.07;2.90;;;28.50;28.90;;;;;;5082464;28;20460;-74
2022/06/17 12:42:29;;;;;;;2.90;2.50;;;28.20;29.70;;;;;;5086721;28;20409;-75
2022/06/17 12:45:45;;;;;;;2.97;2.70;;;29.10;28.80;;;;;;5074731;28;20880;-75
2022/06/17 12:48:38;;;;;;;3.10;2.57;;;29.30;28.30;;;;;;5072665;28;20444;-74
2022/06/17 12:54:40;;;;;;;4.37;2.63;;;29.00;28.40;;;;;;5081886;28;20472;-74
2022/06/17 12:57:27;;;;;;;3.30;2.80;;;28.50;28.80;;;;;;5030926;28;20477;-75
2022/06/17 13:00:12;;;;;;;3.70;2.60;;;28.70;28.60;;;;;;5035938;28;21012;-74
2022/06/17 13:02:56;;;;;;;2.83;2.63;;;29.20;28.60;;;;;;5030918;28;20518;-74
2022/06/17 13:05:38;;;;;;;4.20;2.83;;;29.30;27.80;;;;;;5037484;28;21899;-73
2022/06/17 13:08:12;;;;;;;3.80;2.37;;;30.00;27.30;;;;;;5040520;28;20482;-74
2022/06/17 13:10:57;;;;;;;3.23;2.07;;;30.20;26.70;;;;;;5031714;28;20945;-73
2022/06/17 13:13:42;;;;;;;3.73;2.23;;;29.80;26.60;;;;;;5037053;28;20407;-75
2022/06/17 13:16:39;;;;;;;3.20;2.20;;;29.10;27.20;;;;;;5034727;28;20475;-75
2022/06/17 13:19:19;;;;;;;3.33;2.40;;;29.40;27.20;;;;;;5034093;28;20463;-73
2022/06/17 13:22:00;;;;;;;3.90;2.67;;;29.90;27.40;;;;;;5034465;28;20439;-73
2022/06/17 13:24:43;;;;;;;3.03;2.40;;;30.90;25.70;;;;;;5025520;28;20431;-74
2022/06/17 13:27:34;;;;;;;2.83;2.27;;;31.50;25.50;;;;;;5021664;28;20867;-75
2022/06/17 13:30:23;;;;;;;4.93;2.40;;;32.10;24.70;;;;;;5014571;28;20563;-76
2022/06/17 13:33:21;;;;;;;5.60;2.20;;;31.70;24.80;;;;;;5037823;28;20426;-74
2022/06/17 13:35:55;;;;;;;4.03;2.63;;;31.20;24.90;;;;;;5076773;28;20470;-75
2022/06/17 13:38:30;;;;;;;6.50;2.23;;;30.00;26.20;;;;;;5074229;28;20421;-74
2022/06/17 13:41:02;;;;;;;3.60;2.60;;;29.70;26.80;;;;;;5083867;28;20531;-74
2022/06/17 13:43:37;;;;;;;5.90;2.90;;;30.00;26.60;;;;;;5081319;28;20448;-74
2022/06/17 13:46:14;;;;;;;3.30;2.47;;;30.60;25.60;;;;;;5082855;28;20417;-73
2022/06/17 13:48:52;;;;;;;2.37;1.93;;;31.20;25.50;;;;;;5079685;28;20963;-74
2022/06/17 13:51:42;;;;;;;4.43;2.50;;;32.10;24.60;;;;;;5091948;28;20488;-74